MSC Lisbon — A8LL9 — position and weather

sailwx.info

Track history (hours):
 
Tides and Currents Weather Stations Pressure Air Temp Water Temp Dewpoint Dewpoint Depression Visibility Wind Speed Wind Dir Waves Ship Positions

MSC Lisbon

Last reported at 2016-Sep-30 06:33 UTC. Time now 2016-Oct-01 15:32 UTC.
Position N 30°25' E 122°51'.

Length 336.7 m; beam 45.6 m; draft 15.3 m.

Type: Ship (hazmat cat A). MMSI: 636091276.

Date/timePositionNaut miles runAvg speedWind from/ knotsBaromVisibWave heightAir tempDewpointWater temp
2016-Sep-30 06:33N 30°25' E 122°51'52 7.5
2016-Sep-29 23:33N 29°54' E 122°02'0 0.1
2016-Sep-29 21:30N 29°54' E 122°02'0 0.0
2016-Sep-29 19:30N 29°54' E 122°02'0 0.0
2016-Sep-29 16:30N 29°54' E 122°02'0 0.0
2016-Sep-29 15:30N 29°54' E 122°02'0 0.0
2016-Sep-29 13:33N 29°54' E 122°02'43 8.0
2016-Sep-29 08:09N 29°21' E 122°35'1016.2
2016-Sep-29 07:33N 29°11' E 122°34'47420.5
2016-Sep-28 08:28N 22°57' E 117°11'  
2016-Sep-25 17:27N 22°20' E 114°07'0 0.0
2016-Sep-25 15:26N 22°20' E 114°07'0 0.0
2016-Sep-25 14:20N 22°20' E 114°07'0 0.0
2016-Sep-25 12:32N 22°20' E 114°07'0 0.0
2016-Sep-25 11:26N 22°20' E 114°07'0 0.0
2016-Sep-25 10:20N 22°20' E 114°07'0 0.5
2016-Sep-25 09:33N 22°20' E 114°07'15 0.3
2016-Sep-23 06:33N 22°27' E 113°53'1 0.3
2016-Sep-23 03:11N 22°28' E 113°52'0 0.0
2016-Sep-22 23:11N 22°28' E 113°52'0 0.0
2016-Sep-22 20:28N 22°28' E 113°52'  
2016-Sep-20 14:05N 30°28' E 123°03'1317.8
2016-Sep-20 13:20N 30°40' E 122°56'6814.1
2016-Sep-20 08:29N 31°17' E 121°50'  
Track history (hours):
 
Tides and Currents Weather Stations Pressure Air Temp Water Temp Dewpoint Dewpoint Depression Visibility Wind Speed Wind Dir Waves Ship Positions

MSC Lisbon

Last reported at 2016-Sep-30 06:33 UTC. Time now 2016-Oct-01 15:32 UTC.
Position N 30°25' E 122°51'.

Length 336.7 m; beam 45.6 m; draft 15.3 m.

Type: Ship (hazmat cat A). MMSI: 636091276.

Date/timePositionNaut miles runAvg speedWind from/ knotsBaromVisibWave heightAir tempDewpointWater temp
2016-Sep-30 06:33N 30°25' E 122°51'52 7.5
2016-Sep-29 23:33N 29°54' E 122°02'0 0.1
2016-Sep-29 21:30N 29°54' E 122°02'0 0.0
2016-Sep-29 19:30N 29°54' E 122°02'0 0.0
2016-Sep-29 16:30N 29°54' E 122°02'0 0.0
2016-Sep-29 15:30N 29°54' E 122°02'0 0.0
2016-Sep-29 13:33N 29°54' E 122°02'43 8.0
2016-Sep-29 08:09N 29°21' E 122°35'1016.2
2016-Sep-29 07:33N 29°11' E 122°34'47420.5
2016-Sep-28 08:28N 22°57' E 117°11'  
2016-Sep-25 17:27N 22°20' E 114°07'0 0.0
2016-Sep-25 15:26N 22°20' E 114°07'0 0.0
2016-Sep-25 14:20N 22°20' E 114°07'0 0.0
2016-Sep-25 12:32N 22°20' E 114°07'0 0.0
2016-Sep-25 11:26N 22°20' E 114°07'0 0.0
2016-Sep-25 10:20N 22°20' E 114°07'0 0.5
2016-Sep-25 09:33N 22°20' E 114°07'15 0.3
2016-Sep-23 06:33N 22°27' E 113°53'1 0.3
2016-Sep-23 03:11N 22°28' E 113°52'0 0.0
2016-Sep-22 23:11N 22°28' E 113°52'0 0.0
2016-Sep-22 20:28N 22°28' E 113°52'  
2016-Sep-20 14:05N 30°28' E 123°03'1317.8
2016-Sep-20 13:20N 30°40' E 122°56'6814.1
2016-Sep-20 08:29N 31°17' E 121°50'  

Dump ship's entire track history